createdAt,value
2017-12-11T00:00:24.072Z,1.40
2017-12-11T00:02:55.821Z,1.30
2017-12-11T00:05:27.519Z,1.30
2017-12-11T00:07:57.920Z,1.30
2017-12-11T00:10:28.881Z,1.30
2017-12-11T00:13:00.348Z,1.20
2017-12-11T00:15:30.652Z,1.20
2017-12-11T00:18:01.387Z,1.10
2017-12-11T00:20:32.186Z,1.00
2017-12-11T00:23:02.594Z,0.90
2017-12-11T00:25:32.883Z,0.90
2017-12-11T00:28:03.595Z,0.80
2017-12-11T00:30:34.603Z,0.70
2017-12-11T00:33:05.611Z,0.60
2017-12-11T00:35:35.720Z,0.50
2017-12-11T00:38:06.919Z,0.70
2017-12-11T00:40:38.003Z,0.60
2017-12-11T00:43:08.820Z,0.70
2017-12-11T00:45:39.162Z,0.70
2017-12-11T00:48:09.875Z,0.70
2017-12-11T00:50:40.387Z,0.60
2017-12-11T00:53:11.416Z,0.60
2017-12-11T00:55:42.683Z,0.60
2017-12-11T00:58:13.059Z,0.60
2017-12-11T01:00:43.842Z,0.60
2017-12-11T01:03:14.680Z,0.60
2017-12-11T01:05:45.207Z,0.50
2017-12-11T01:08:15.616Z,0.40
2017-12-11T01:10:47.449Z,0.60
2017-12-11T01:13:17.814Z,0.60
2017-12-11T01:15:48.071Z,0.60
2017-12-11T01:18:18.872Z,0.50
2017-12-11T01:20:49.376Z,0.40
2017-12-11T01:23:20.245Z,0.50
2017-12-11T01:25:50.405Z,0.40
2017-12-11T01:28:22.272Z,0.60
2017-12-11T01:30:53.615Z,0.50
2017-12-11T01:33:24.382Z,0.50
2017-12-11T01:35:55.087Z,0.60
2017-12-11T01:38:26.412Z,0.70
2017-12-11T01:40:57.241Z,0.70
2017-12-11T01:43:28.818Z,0.70
2017-12-11T01:45:59.140Z,0.70
2017-12-11T01:48:29.736Z,0.70
2017-12-11T01:51:00.244Z,0.70
2017-12-11T01:53:30.921Z,0.70
2017-12-11T01:56:01.245Z,0.50
2017-12-11T01:58:32.192Z,0.50
2017-12-11T02:01:02.590Z,0.50
2017-12-11T02:03:34.169Z,0.50
2017-12-11T02:06:04.459Z,0.50
2017-12-11T02:08:35.445Z,0.60
2017-12-11T02:11:07.489Z,0.60
2017-12-11T02:13:39.271Z,0.60
2017-12-11T02:16:10.685Z,0.60
2017-12-11T02:18:42.345Z,0.70
2017-12-11T02:21:14.444Z,0.80
2017-12-11T02:23:45.513Z,0.80
2017-12-11T02:26:16.152Z,0.60
2017-12-11T02:28:47.377Z,0.60
2017-12-11T02:31:17.923Z,0.60
2017-12-11T02:33:49.993Z,0.80
2017-12-11T02:36:20.607Z,0.80
2017-12-11T02:38:51.379Z,0.80
2017-12-11T02:41:22.865Z,0.80
2017-12-11T02:43:53.816Z,0.80
2017-12-11T02:46:24.786Z,0.80
2017-12-11T02:48:55.795Z,0.80
2017-12-11T02:51:26.651Z,0.70
2017-12-11T02:53:57.849Z,0.70
2017-12-11T02:56:28.475Z,0.70
2017-12-11T02:59:00.073Z,0.70
2017-12-11T03:01:30.561Z,0.70
2017-12-11T03:04:02.018Z,0.70
2017-12-11T03:06:33.372Z,0.80
2017-12-11T03:09:05.101Z,0.90
2017-12-11T03:11:35.414Z,0.90
2017-12-11T03:14:05.954Z,0.80
2017-12-11T03:16:37.076Z,0.70
2017-12-11T03:19:08.710Z,0.70
2017-12-11T03:21:39.203Z,0.70
2017-12-11T03:24:09.933Z,0.70
2017-12-11T03:26:40.814Z,0.70
2017-12-11T03:29:12.124Z,0.70
2017-12-11T03:31:42.905Z,0.70
2017-12-11T03:34:13.274Z,0.70
2017-12-11T03:36:44.213Z,0.70
2017-12-11T03:39:15.447Z,0.60
2017-12-11T03:41:46.668Z,0.60
2017-12-11T03:44:17.739Z,0.70
2017-12-11T03:46:48.449Z,0.60
2017-12-11T03:49:19.819Z,0.70
2017-12-11T03:51:51.125Z,0.70
2017-12-11T03:54:21.469Z,0.70
2017-12-11T03:56:52.248Z,0.70
2017-12-11T03:59:23.161Z,0.60
2017-12-11T04:01:54.430Z,0.70
2017-12-11T04:04:25.145Z,0.70
2017-12-11T04:06:55.994Z,0.70
2017-12-11T04:09:27.256Z,0.80
2017-12-11T04:11:58.180Z,0.80
2017-12-11T04:14:28.864Z,0.80
2017-12-11T04:17:00.599Z,0.80
2017-12-11T04:19:31.210Z,0.80
2017-12-11T04:22:02.762Z,0.70
2017-12-11T04:24:33.468Z,0.80
2017-12-11T04:27:04.010Z,0.80
2017-12-11T04:29:34.522Z,0.80
2017-12-11T04:32:06.761Z,0.70
2017-12-11T04:34:37.632Z,0.70
2017-12-11T04:37:08.427Z,0.70
2017-12-11T04:39:40.832Z,0.70
2017-12-11T04:42:11.923Z,0.70
2017-12-11T04:44:42.410Z,0.70
2017-12-11T04:47:14.200Z,0.80
2017-12-11T04:49:45.281Z,0.90
2017-12-11T04:52:16.960Z,0.90
2017-12-11T04:54:47.902Z,0.90
2017-12-11T04:57:18.806Z,1.00
2017-12-11T05:02:24.087Z,0.90
2017-12-11T05:04:55.119Z,1.00
2017-12-11T05:07:26.671Z,1.00
2017-12-11T05:09:57.903Z,1.00
2017-12-11T05:12:29.331Z,1.20
2017-12-11T05:14:59.630Z,1.20
2017-12-11T05:17:30.548Z,1.10
2017-12-11T05:20:01.678Z,1.00
2017-12-11T05:22:32.331Z,1.00
2017-12-11T05:25:02.981Z,1.10
2017-12-11T05:27:33.468Z,1.10
2017-12-11T05:30:04.074Z,1.10
2017-12-11T05:32:35.985Z,1.20
2017-12-11T05:35:06.820Z,1.20
2017-12-11T05:37:37.555Z,1.20
2017-12-11T05:40:08.672Z,1.20
2017-12-11T05:42:48.987Z,1.20
2017-12-11T05:45:22.829Z,1.20
2017-12-11T05:47:57.343Z,1.10
2017-12-11T05:50:31.934Z,1.10
2017-12-11T05:53:04.005Z,1.20
2017-12-11T05:55:34.454Z,1.20
2017-12-11T05:58:05.540Z,1.20
2017-12-11T06:00:36.680Z,1.20
2017-12-11T06:03:07.095Z,1.20
2017-12-11T06:05:38.565Z,1.10
2017-12-11T06:08:08.917Z,1.00
2017-12-11T06:10:39.311Z,1.00
2017-12-11T06:13:09.702Z,1.00
2017-12-11T06:15:41.274Z,1.00
2017-12-11T06:18:11.697Z,1.10
2017-12-11T06:20:42.022Z,1.10
2017-12-11T06:23:12.326Z,1.10
2017-12-11T06:25:43.598Z,1.00
2017-12-11T06:28:14.142Z,1.00
2017-12-11T06:30:44.883Z,0.90
2017-12-11T06:33:15.341Z,0.90
2017-12-11T06:35:46.431Z,0.70
2017-12-11T06:38:16.867Z,0.70
2017-12-11T06:40:47.525Z,0.70
2017-12-11T06:43:17.910Z,0.80
2017-12-11T06:45:48.533Z,0.80
2017-12-11T06:48:18.989Z,0.70
2017-12-11T06:50:51.777Z,0.70
2017-12-11T06:53:22.210Z,0.70
2017-12-11T06:55:52.503Z,0.70
2017-12-11T06:58:22.994Z,0.80
2017-12-11T07:00:53.329Z,0.80
2017-12-11T07:03:23.821Z,0.80
2017-12-11T07:05:54.409Z,0.80
2017-12-11T07:08:24.824Z,0.80
2017-12-11T07:10:55.533Z,0.80
2017-12-11T07:13:26.646Z,0.60
2017-12-11T07:15:57.253Z,0.60
2017-12-11T07:18:27.702Z,0.60
2017-12-11T07:20:58.142Z,0.50
2017-12-11T07:23:29.315Z,0.70
2017-12-11T07:26:00.165Z,0.70
2017-12-11T07:28:30.721Z,0.60
2017-12-11T07:31:01.354Z,0.50
2017-12-11T07:33:31.999Z,0.60
2017-12-11T07:36:02.733Z,0.40
2017-12-11T07:38:33.110Z,0.30
2017-12-11T07:41:03.690Z,0.30
2017-12-11T07:43:34.135Z,0.40
2017-12-11T07:46:05.860Z,0.40
2017-12-11T07:48:36.230Z,0.40
2017-12-11T07:51:06.830Z,0.30
2017-12-11T07:53:37.421Z,0.30
2017-12-11T07:56:07.768Z,0.30
2017-12-11T07:58:38.956Z,0.30
2017-12-11T08:01:10.616Z,0.30
2017-12-11T08:03:41.170Z,0.20
2017-12-11T08:06:11.595Z,0.30
2017-12-11T08:08:42.286Z,0.40
2017-12-11T08:11:13.524Z,0.40
2017-12-11T08:13:44.782Z,0.30
2017-12-11T08:16:16.131Z,0.50
2017-12-11T08:18:47.407Z,0.60
2017-12-11T08:21:17.755Z,0.60
2017-12-11T08:23:48.556Z,0.60
2017-12-11T08:26:18.973Z,0.70
2017-12-11T08:28:49.481Z,0.70
2017-12-11T08:31:31.339Z,0.80
2017-12-11T08:34:02.533Z,0.80
2017-12-11T08:36:33.101Z,0.70
2017-12-11T08:39:03.451Z,0.80
2017-12-11T08:41:34.566Z,0.80
2017-12-11T08:44:04.966Z,0.70
2017-12-11T08:46:35.822Z,0.70
2017-12-11T08:49:06.667Z,0.70
2017-12-11T08:51:37.126Z,0.70
2017-12-11T08:54:07.798Z,0.60
2017-12-11T08:56:38.266Z,0.60
2017-12-11T08:59:08.687Z,0.60
2017-12-11T09:01:39.206Z,0.60
2017-12-11T09:04:10.865Z,0.50
2017-12-11T09:06:41.735Z,0.50
2017-12-11T09:09:13.041Z,0.60
2017-12-11T09:11:43.617Z,0.60
2017-12-11T09:14:15.254Z,0.50
2017-12-11T09:16:45.852Z,0.50
2017-12-11T09:19:17.413Z,0.50
2017-12-11T09:21:48.117Z,0.50
2017-12-11T09:24:18.832Z,0.60
2017-12-11T09:26:50.116Z,0.60
2017-12-11T09:29:21.974Z,0.60
2017-12-11T09:31:52.552Z,0.60
2017-12-11T09:34:23.972Z,0.60
2017-12-11T09:36:54.611Z,0.60
2017-12-11T09:39:25.360Z,0.60
2017-12-11T09:41:56.181Z,0.60
2017-12-11T09:45:56.110Z,0.70
2017-12-11T09:48:26.594Z,0.70
2017-12-11T09:50:57.075Z,0.70
2017-12-11T09:53:28.491Z,0.70
2017-12-11T09:55:59.196Z,0.70
2017-12-11T09:58:29.835Z,0.60
2017-12-11T10:01:00.914Z,0.60
2017-12-11T10:03:31.541Z,0.70
2017-12-11T10:06:02.303Z,0.70
2017-12-11T10:08:33.182Z,0.60
2017-12-11T10:11:04.882Z,0.70
2017-12-11T10:13:36.274Z,0.70
2017-12-11T10:16:06.891Z,0.70
2017-12-11T10:21:13.628Z,0.80
2017-12-11T10:23:44.046Z,0.80
2017-12-11T10:26:14.737Z,0.80
2017-12-11T10:28:45.436Z,0.90
2017-12-11T10:31:16.749Z,0.60
2017-12-11T10:33:47.178Z,0.60
2017-12-11T10:36:17.636Z,0.60
2017-12-11T10:38:48.450Z,0.70
2017-12-11T10:41:18.955Z,0.70
2017-12-11T10:43:49.570Z,0.70
2017-12-11T10:46:20.342Z,0.70
2017-12-11T10:48:51.054Z,0.80
2017-12-11T10:51:22.665Z,0.90
2017-12-11T10:53:54.334Z,0.80
2017-12-11T10:56:25.875Z,0.80
2017-12-11T10:58:57.635Z,0.90
2017-12-11T11:01:28.114Z,0.90
2017-12-11T11:03:58.457Z,0.90
2017-12-11T11:06:28.908Z,0.90
2017-12-11T11:09:00.349Z,0.90
2017-12-11T11:11:31.845Z,0.90
2017-12-11T11:14:03.143Z,0.80
2017-12-11T11:16:34.593Z,1.00
2017-12-11T11:19:06.417Z,0.90
2017-12-11T11:21:36.895Z,0.90
2017-12-11T11:24:08.082Z,0.80
2017-12-11T11:26:38.435Z,0.80
2017-12-11T11:29:09.611Z,0.90
2017-12-11T11:31:40.922Z,0.80
2017-12-11T11:34:11.339Z,0.80
2017-12-11T11:36:41.817Z,0.80
2017-12-11T11:39:12.874Z,0.70
2017-12-11T11:41:43.224Z,0.70
2017-12-11T11:44:14.205Z,0.70
2017-12-11T11:46:45.522Z,0.80
2017-12-11T11:49:16.120Z,0.80
2017-12-11T11:51:46.533Z,0.80
2017-12-11T11:54:17.182Z,0.90
2017-12-11T11:56:48.038Z,0.80
2017-12-11T11:59:18.646Z,0.80
2017-12-11T12:01:49.534Z,0.80
2017-12-11T12:04:20.654Z,0.90
2017-12-11T12:06:52.007Z,0.90
2017-12-11T12:09:22.596Z,0.80
2017-12-11T12:11:53.236Z,0.90
2017-12-11T12:14:23.875Z,0.80
2017-12-11T12:16:54.926Z,0.80
2017-12-11T12:19:26.842Z,0.80
2017-12-11T12:21:57.619Z,0.80
2017-12-11T12:24:28.322Z,0.80
2017-12-11T12:26:59.116Z,0.80
2017-12-11T12:29:30.529Z,0.70
2017-12-11T12:32:01.132Z,0.70
2017-12-11T12:34:31.845Z,0.70
2017-12-11T12:37:02.277Z,0.80
2017-12-11T12:39:33.344Z,0.80
2017-12-11T12:42:03.775Z,0.80
2017-12-11T12:44:34.307Z,0.70
2017-12-11T12:47:04.896Z,0.60
2017-12-11T12:49:36.247Z,0.60
2017-12-11T12:52:07.155Z,0.60
2017-12-11T12:54:37.795Z,0.60
2017-12-11T12:57:09.734Z,0.60
2017-12-11T12:59:40.808Z,0.60
2017-12-11T13:02:12.050Z,0.70
2017-12-11T13:04:42.523Z,0.70
2017-12-11T13:07:13.206Z,0.70
2017-12-11T13:09:44.533Z,0.80
2017-12-11T13:12:15.139Z,0.80
2017-12-11T13:14:45.964Z,0.80
2017-12-11T13:17:16.675Z,0.80
2017-12-11T13:19:47.166Z,0.80
2017-12-11T13:22:18.521Z,0.80
2017-12-11T13:24:50.283Z,0.70
2017-12-11T13:27:21.454Z,0.60
2017-12-11T13:29:52.135Z,0.60
2017-12-11T13:32:23.383Z,0.70
2017-12-11T13:34:55.309Z,0.60
2017-12-11T13:37:26.546Z,0.60
2017-12-11T13:39:57.922Z,0.60
2017-12-11T13:42:28.335Z,0.60
2017-12-11T13:44:58.751Z,0.50
2017-12-11T13:47:29.406Z,0.60
2017-12-11T13:50:00.158Z,0.70
2017-12-11T13:52:31.429Z,0.60
2017-12-11T13:55:01.785Z,0.60
2017-12-11T13:57:32.375Z,0.50
2017-12-11T14:00:03.384Z,0.40
2017-12-11T14:02:34.056Z,0.40
2017-12-11T14:05:06.113Z,0.40
2017-12-11T14:07:36.429Z,0.40
2017-12-11T14:10:07.578Z,0.50
2017-12-11T14:12:39.254Z,0.50
2017-12-11T14:15:09.592Z,0.50
2017-12-11T14:17:39.992Z,0.40
2017-12-11T14:20:10.574Z,0.30
2017-12-11T14:22:40.974Z,0.30
2017-12-11T14:25:11.348Z,0.30
2017-12-11T14:27:41.788Z,0.20
2017-12-11T14:30:13.189Z,0.30
2017-12-11T14:32:43.553Z,0.20
2017-12-11T14:35:14.743Z,0.20
2017-12-11T14:37:45.293Z,0.10
2017-12-11T14:40:15.642Z,0.20
2017-12-11T14:42:46.608Z,0.20
2017-12-11T14:45:17.060Z,0.20
2017-12-11T14:47:47.645Z,0.20
2017-12-11T14:50:19.062Z,0.30
2017-12-11T14:52:49.634Z,0.30
2017-12-11T14:55:20.884Z,0.30
2017-12-11T14:57:52.159Z,0.40
2017-12-11T15:00:23.158Z,0.30
2017-12-11T15:02:53.826Z,0.30
2017-12-11T15:05:24.363Z,0.30
2017-12-11T15:07:54.901Z,0.40
2017-12-11T15:10:26.366Z,0.30
2017-12-11T15:12:57.553Z,0.30
2017-12-11T15:15:28.097Z,0.30
2017-12-11T15:17:58.652Z,0.40
2017-12-11T15:20:29.494Z,0.40
2017-12-11T15:23:00.045Z,0.30
2017-12-11T15:25:31.613Z,0.30
2017-12-11T15:28:02.921Z,0.20
2017-12-11T15:30:33.502Z,0.20
2017-12-11T15:33:04.491Z,0.20
2017-12-11T15:35:35.161Z,0.30
2017-12-11T15:38:05.881Z,0.40
2017-12-11T15:40:36.517Z,0.40
2017-12-11T15:43:07.841Z,0.40
2017-12-11T15:45:38.945Z,0.40
2017-12-11T15:48:09.433Z,0.40
2017-12-11T15:50:40.854Z,0.50
2017-12-11T15:53:11.386Z,0.50
2017-12-11T15:55:42.507Z,0.50
2017-12-11T15:58:13.277Z,0.50
2017-12-11T16:00:43.845Z,0.60
2017-12-11T16:03:14.607Z,0.60
2017-12-11T16:05:45.401Z,0.70
2017-12-11T16:08:15.996Z,0.70
2017-12-11T16:10:46.724Z,0.70
2017-12-11T16:13:18.958Z,0.70
2017-12-11T16:15:49.519Z,0.70
2017-12-11T16:18:20.338Z,0.70
2017-12-11T16:20:50.822Z,0.70
2017-12-11T16:23:21.402Z,0.70
2017-12-11T16:25:51.950Z,0.70
2017-12-11T16:28:22.937Z,0.60
2017-12-11T16:30:53.564Z,0.60
2017-12-11T16:33:24.090Z,0.70
2017-12-11T16:35:54.741Z,0.70
2017-12-11T16:38:25.690Z,0.70
2017-12-11T16:40:57.034Z,0.80
2017-12-11T16:43:27.571Z,0.80
2017-12-11T16:45:58.305Z,0.80
2017-12-11T16:48:29.527Z,0.80
2017-12-11T16:51:00.180Z,0.80
2017-12-11T16:53:31.428Z,0.80
2017-12-11T16:56:02.140Z,0.90
2017-12-11T16:58:32.876Z,1.00
2017-12-11T17:01:03.430Z,0.90
2017-12-11T17:03:34.908Z,0.80
2017-12-11T17:06:05.654Z,0.80
2017-12-11T17:08:36.369Z,0.90
2017-12-11T17:11:07.974Z,0.80
2017-12-11T17:13:38.383Z,0.70
2017-12-11T17:16:21.076Z,0.80
2017-12-11T17:18:58.648Z,0.70
2017-12-11T17:21:29.953Z,0.80
2017-12-11T17:24:00.954Z,0.70
2017-12-11T17:26:32.131Z,0.80
2017-12-11T17:29:02.860Z,0.80
2017-12-11T17:31:33.955Z,0.80
2017-12-11T17:34:04.582Z,0.90
2017-12-11T17:36:36.686Z,1.00
2017-12-11T17:39:07.283Z,1.00
2017-12-11T17:41:37.993Z,1.00
2017-12-11T17:44:08.449Z,1.00
2017-12-11T17:46:39.031Z,0.90
2017-12-11T17:49:09.354Z,0.90
2017-12-11T17:51:39.790Z,1.00
2017-12-11T17:54:10.598Z,1.10
2017-12-11T17:56:41.087Z,1.10
2017-12-11T17:59:11.669Z,1.00
2017-12-11T18:01:42.197Z,1.00
2017-12-11T18:04:14.293Z,1.00
2017-12-11T18:06:46.119Z,1.00
2017-12-11T18:09:17.975Z,0.90
2017-12-11T18:11:49.568Z,1.00
2017-12-11T18:14:21.011Z,1.00
2017-12-11T18:16:52.236Z,0.90
2017-12-11T18:19:23.776Z,1.00
2017-12-11T18:21:55.742Z,1.00
2017-12-11T18:24:27.107Z,1.00
2017-12-11T18:26:57.438Z,1.00
2017-12-11T18:29:28.165Z,1.00
2017-12-11T18:31:58.633Z,1.20
2017-12-11T18:34:29.240Z,1.10
2017-12-11T18:37:00.710Z,1.20
2017-12-11T18:39:31.169Z,1.20
2017-12-11T18:42:02.937Z,1.30
2017-12-11T18:44:34.447Z,1.20
2017-12-11T18:47:06.506Z,1.30
2017-12-11T18:49:37.166Z,1.20
2017-12-11T18:52:07.698Z,1.20
2017-12-11T18:54:38.286Z,1.20
2017-12-11T18:57:08.992Z,1.20
2017-12-11T18:59:39.704Z,1.20
2017-12-11T19:02:10.499Z,1.30
2017-12-11T19:04:41.882Z,1.20
2017-12-11T19:07:13.712Z,1.20
2017-12-11T19:09:45.375Z,1.20
2017-12-11T19:12:16.097Z,1.10
2017-12-11T19:16:16.260Z,1.20
2017-12-11T19:18:47.174Z,1.30
2017-12-11T19:21:18.154Z,1.30
2017-12-11T19:23:48.730Z,1.30
2017-12-11T19:26:19.426Z,1.40
2017-12-11T19:28:50.633Z,1.40
2017-12-11T19:31:21.434Z,1.30
2017-12-11T19:33:52.233Z,1.30
2017-12-11T19:36:23.508Z,1.30
2017-12-11T19:38:54.329Z,1.30
2017-12-11T19:41:25.437Z,1.40
2017-12-11T19:43:57.593Z,1.30
2017-12-11T19:46:29.157Z,1.30
2017-12-11T19:49:00.155Z,1.30
2017-12-11T19:51:31.587Z,1.40
2017-12-11T19:54:02.877Z,1.40
2017-12-11T19:56:33.394Z,1.40
2017-12-11T19:59:05.039Z,1.40
2017-12-11T20:01:35.610Z,1.50
2017-12-11T20:04:06.341Z,1.60
2017-12-11T20:06:36.855Z,1.60
2017-12-11T20:10:10.287Z,1.50
2017-12-11T20:12:40.988Z,1.50
2017-12-11T20:15:11.751Z,1.40
2017-12-11T20:17:44.157Z,1.40
2017-12-11T20:20:14.721Z,1.50
2017-12-11T20:22:45.545Z,1.50
2017-12-11T20:25:16.714Z,1.50
2017-12-11T20:27:48.061Z,1.60
2017-12-11T20:30:18.880Z,1.50
2017-12-11T20:32:49.818Z,1.60
2017-12-11T20:35:23.297Z,1.80
2017-12-11T20:37:54.678Z,1.70
2017-12-11T20:40:25.515Z,1.70
2017-12-11T20:42:56.971Z,1.70
2017-12-11T20:45:28.000Z,1.70
2017-12-11T20:47:59.074Z,1.70
2017-12-11T20:50:30.093Z,1.70
2017-12-11T20:53:03.935Z,1.60
2017-12-11T20:55:35.715Z,1.70
2017-12-11T20:58:12.266Z,1.70
2017-12-11T21:00:43.230Z,1.70
2017-12-11T21:03:14.511Z,1.70
2017-12-11T21:05:45.706Z,1.60
2017-12-11T21:08:17.358Z,1.60
2017-12-11T21:10:48.112Z,1.60
2017-12-11T21:13:19.275Z,1.60
2017-12-11T21:15:50.079Z,1.50
2017-12-11T21:18:20.761Z,1.50
2017-12-11T21:20:52.320Z,1.60
2017-12-11T21:23:23.155Z,1.70
2017-12-11T21:25:53.678Z,1.80
2017-12-11T21:28:24.144Z,1.70
2017-12-11T21:30:56.049Z,1.60
2017-12-11T21:33:26.950Z,1.60
2017-12-11T21:35:58.177Z,1.60
2017-12-11T21:39:58.259Z,1.60
2017-12-11T21:42:29.222Z,1.60
2017-12-11T21:45:00.325Z,1.60
2017-12-11T21:47:31.211Z,1.60
2017-12-11T21:50:02.402Z,1.60
2017-12-11T21:52:33.104Z,1.60
2017-12-11T21:55:04.679Z,1.60
2017-12-11T21:57:35.589Z,1.60
2017-12-11T22:00:06.630Z,1.70
2017-12-11T22:02:37.489Z,1.70
2017-12-11T22:05:08.126Z,1.80
2017-12-11T22:07:39.454Z,1.80
2017-12-11T22:10:10.218Z,1.80
2017-12-11T22:12:40.862Z,1.80
2017-12-11T22:15:11.601Z,1.90
2017-12-11T22:17:42.544Z,1.80
2017-12-11T22:20:13.218Z,1.80
2017-12-11T22:22:44.326Z,1.80
2017-12-11T22:25:15.808Z,1.80
2017-12-11T22:27:47.469Z,1.90
2017-12-11T22:30:20.533Z,1.90
2017-12-11T22:32:52.664Z,1.80
2017-12-11T22:35:24.592Z,1.90
2017-12-11T22:37:55.896Z,1.90
2017-12-11T22:40:26.797Z,1.90
2017-12-11T22:42:57.502Z,1.90
2017-12-11T22:45:29.111Z,1.90
2017-12-11T22:47:59.745Z,1.90
2017-12-11T22:50:30.219Z,1.80
2017-12-11T22:53:01.269Z,1.80
2017-12-11T22:55:35.751Z,1.90
2017-12-11T22:58:06.787Z,1.90
2017-12-11T23:00:38.474Z,1.90
2017-12-11T23:03:09.717Z,1.90
2017-12-11T23:05:41.591Z,1.90
2017-12-11T23:08:12.372Z,1.90
2017-12-11T23:10:43.497Z,1.90
2017-12-11T23:13:14.685Z,1.90
2017-12-11T23:15:45.871Z,1.90
2017-12-11T23:18:16.481Z,1.90
2017-12-11T23:20:48.209Z,1.80
2017-12-11T23:23:20.430Z,1.80
2017-12-11T23:25:51.411Z,1.80
2017-12-11T23:28:22.170Z,1.80
2017-12-11T23:30:56.411Z,1.70
2017-12-11T23:33:27.157Z,1.70
2017-12-11T23:35:59.237Z,1.70
2017-12-11T23:38:31.087Z,1.70
2017-12-11T23:41:01.680Z,1.70
2017-12-11T23:43:32.530Z,1.70
2017-12-11T23:46:03.405Z,1.70
2017-12-11T23:48:34.343Z,1.70
2017-12-11T23:51:04.854Z,1.70
2017-12-11T23:53:36.914Z,1.50
2017-12-11T23:56:08.441Z,1.50
2017-12-11T23:58:38.996Z,1.50
